Beverly Hills, Texas
Current Conditions -  °F | °C
As of 2:51 PM on Tuesday 25 Nov 2014 (Local Time) from KACT Reporting Station
Clear Clear  
Wind Chill: 65°   Ceiling: Unl
Heat Index: 65°   Visibility: 10mi
Dew Point: 25°   Wind: 13mph
Humidity: 22%   Direction: 260°W
Pressure: 30.2"   Gusts: NA
Location:  31.5144°N, 97.156°W
Report Text: KACT 252051Z 26011KT 10SM CLR 18/M04 A3020 RMK AO2 SLP226 T01831039 56035
Loading
Personal Weather Stations






























Interactive Weather Map New forecast layout! Learn more

10-Day Weather Forecast

Advertisements
Track Severe Weather on mobile